Pickstown, South Dakota
Current Conditions -  °F | °C
As of 11:15 PM on Monday 22 Dec 2014 (Local Time) from KONL Reporting Station
Light Snow Light Snow  
Wind Chill: -7°   Ceiling: 1000
Heat Index:   Visibility: 2.5mi
Dew Point: -1°   Wind: 21mph
Humidity: 98%   Direction: 320°NW
Pressure: 29.54"   Gusts: 24mph
Location:  43.07°N, 98.53°W
Report Text: KONL 230515Z AUTO 32018G21KT 2 1/2SM -SN OVC010 00/00 A2954 RMK AO2 T10021005
Loading
Personal Weather Stations






























Interactive Weather Map New forecast layout! Learn more

10-Day Weather Forecast

Advertisements
Track Severe Weather on mobile